Tomahawk Bluff, Illinois
Current Conditions -  °F | °C
As of 4:15 AM on Friday 19 Dec 2014 (Local Time) from KVYS Reporting Station
Overcast Overcast  
Wind Chill: 14°   Ceiling: 1800
Heat Index: 21°   Visibility: 7mi
Dew Point: 18°   Wind: 5mph
Humidity: 90%   Direction: 300°WNW
Pressure: 30.29"   Gusts: NA
Location:  41.3955°N, 89.0957°W
Report Text: KVYS 191015Z AUTO 30004KT 7SM OVC018 M06/M08 A3029 RMK AO2 T10631077
Loading
Personal Weather Stations






























Interactive Weather Map New forecast layout! Learn more

10-Day Weather Forecast

Advertisements
Track Severe Weather on mobile